Time;durP1;ratioP1;P1;durP2;ratioP2;P2;SDS_P1;SDS_P2;PMS_P1;PMS_P2;Temp;Humidity;BMP_temperature;BMP_pressure;BME280_temperature;BME280_humidity;BME280_pressure;Samples;Min_cycle;Max_cycle;Signal;HPM_P1;HPM_P2
2023/09/23 00:01:05;;;;;;;0.00;0.00;;;12.60;99.90;;;;;;4953704;28;20139;-81
2023/09/23 00:03:33;;;;;;;0.10;0.10;;;12.70;99.90;;;;;;4945022;29;20028;-81
2023/09/23 00:06:00;;;;;;;0.00;0.00;;;12.80;99.90;;;;;;4943581;29;20027;-81
2023/09/23 00:08:26;;;;;;;0.10;0.10;;;12.80;99.90;;;;;;4944382;29;20411;-81
2023/09/23 00:10:53;;;;;;;0.00;0.00;;;12.90;99.90;;;;;;4949465;28;20039;-80
2023/09/23 00:13:20;;;;;;;0.10;0.10;;;12.90;99.90;;;;;;4962180;28;20032;-80
2023/09/23 00:15:46;;;;;;;0.00;0.00;;;12.90;99.90;;;;;;4947250;29;20614;-80
2023/09/23 00:18:17;;;;;;;0.33;0.33;;;12.80;99.90;;;;;;4945354;28;20122;-80
2023/09/23 00:20:46;;;;;;;0.00;0.00;;;12.80;99.90;;;;;;4948526;28;20047;-81
2023/09/23 00:23:12;;;;;;;0.00;0.00;;;12.90;99.90;;;;;;4946437;28;20761;-83
2023/09/23 00:25:38;;;;;;;0.10;0.10;;;12.90;99.90;;;;;;4951389;29;20041;-83
2023/09/23 00:28:10;;;;;;;0.00;0.00;;;12.90;99.90;;;;;;4950423;28;20131;-83
2023/09/23 00:30:36;;;;;;;0.08;0.08;;;12.90;99.90;;;;;;4946073;29;20023;-84
2023/09/23 00:33:02;;;;;;;0.00;0.00;;;12.90;99.90;;;;;;4947572;28;20054;-83
2023/09/23 00:35:28;;;;;;;0.00;0.00;;;12.70;99.90;;;;;;4947105;29;20910;-84
2023/09/23 00:37:54;;;;;;;0.00;0.00;;;12.70;99.90;;;;;;4947578;29;20455;-84
2023/09/23 00:40:32;;;;;;;0.00;0.00;;;12.80;99.90;;;;;;4948476;29;20522;-82
2023/09/23 00:43:11;;;;;;;0.00;0.00;;;12.80;99.90;;;;;;4945681;28;20028;-83
2023/09/23 00:45:44;;;;;;;0.00;0.00;;;12.80;99.90;;;;;;4953352;28;20140;-83
2023/09/23 00:48:10;;;;;;;0.10;0.10;;;12.80;99.90;;;;;;4943036;28;20043;-84
2023/09/23 00:50:36;;;;;;;0.07;0.07;;;12.80;99.90;;;;;;4948315;29;20050;-84
2023/09/23 00:53:04;;;;;;;0.00;0.00;;;12.70;99.90;;;;;;4949248;28;20063;-84
2023/09/23 00:55:31;;;;;;;0.00;0.00;;;12.80;99.90;;;;;;4950198;28;20035;-83
2023/09/23 00:58:00;;;;;;;0.00;0.00;;;12.60;99.90;;;;;;4943732;28;20500;-83
2023/09/23 01:00:29;;;;;;;0.10;0.10;;;12.70;99.90;;;;;;4948419;28;20699;-85
2023/09/23 01:02:55;;;;;;;0.00;0.00;;;12.70;99.90;;;;;;4950337;29;20023;-85
2023/09/23 01:05:28;;;;;;;0.00;0.00;;;12.70;99.90;;;;;;4944581;28;20103;-83
2023/09/23 01:08:17;;;;;;;0.10;0.10;;;12.70;99.90;;;;;;4943145;29;20019;-82
2023/09/23 01:10:43;;;;;;;0.00;0.00;;;12.70;99.90;;;;;;4946852;28;20043;-82
2023/09/23 01:13:09;;;;;;;0.10;0.10;;;12.60;99.90;;;;;;4946674;28;20149;-83
2023/09/23 01:15:40;;;;;;;0.00;0.00;;;12.50;99.90;;;;;;4949284;28;20626;-83
2023/09/23 01:18:18;;;;;;;0.00;0.00;;;12.60;99.90;;;;;;4962519;28;20042;-83
2023/09/23 01:20:48;;;;;;;0.00;0.00;;;12.70;99.90;;;;;;4944680;28;20056;-83
2023/09/23 01:23:14;;;;;;;0.00;0.00;;;12.70;99.90;;;;;;4952633;28;20026;-83
2023/09/23 01:25:40;;;;;;;0.00;0.00;;;12.60;99.90;;;;;;4961688;28;20035;-84
2023/09/23 01:28:11;;;;;;;0.00;0.00;;;12.70;99.90;;;;;;4944495;28;20166;-85
2023/09/23 01:30:37;;;;;;;0.00;0.00;;;12.70;99.90;;;;;;4940946;28;20519;-85
2023/09/23 01:33:07;;;;;;;0.03;0.03;;;12.70;99.90;;;;;;4947083;29;20050;-83
2023/09/23 01:35:33;;;;;;;0.00;0.00;;;12.70;99.90;;;;;;4945583;29;20027;-84
2023/09/23 01:37:59;;;;;;;0.00;0.00;;;12.70;99.90;;;;;;4948660;28;20042;-83
2023/09/23 01:40:29;;;;;;;0.10;0.10;;;12.70;99.90;;;;;;4947769;28;20039;-84
2023/09/23 01:42:55;;;;;;;0.00;0.00;;;12.80;99.90;;;;;;4948271;28;20035;-84
2023/09/23 01:45:22;;;;;;;0.00;0.00;;;12.70;99.90;;;;;;4950403;28;20670;-84
2023/09/23 01:47:49;;;;;;;0.00;0.00;;;12.60;99.90;;;;;;4944439;28;20031;-85
2023/09/23 01:50:17;;;;;;;0.00;0.00;;;12.60;99.90;;;;;;4937687;28;20042;-86
2023/09/23 01:52:43;;;;;;;0.00;0.00;;;12.70;99.90;;;;;;4961661;28;20035;-85
2023/09/23 01:55:12;;;;;;;0.00;0.00;;;12.70;99.90;;;;;;4948714;28;20039;-85
2023/09/23 01:57:39;;;;;;;0.00;0.00;;;12.70;99.90;;;;;;4948400;29;20600;-85
2023/09/23 02:00:15;;;;;;;0.10;0.10;;;12.70;99.90;;;;;;4948327;29;21084;-84
2023/09/23 02:02:41;;;;;;;0.00;0.00;;;12.70;99.90;;;;;;4938896;28;20043;-85
2023/09/23 02:05:07;;;;;;;0.10;0.10;;;12.70;99.90;;;;;;4937135;29;20016;-84
2023/09/23 02:07:33;;;;;;;0.10;0.10;;;12.80;99.90;;;;;;4958547;28;20038;-84
2023/09/23 02:09:59;;;;;;;0.00;0.00;;;12.70;99.90;;;;;;4944453;28;20031;-84
2023/09/23 02:12:24;;;;;;;0.00;0.00;;;12.80;99.90;;;;;;4945319;29;20130;-83
2023/09/23 02:14:52;;;;;;;0.10;0.10;;;12.80;99.90;;;;;;4942544;29;20030;-84
2023/09/23 02:17:20;;;;;;;0.10;0.10;;;12.80;99.90;;;;;;4952777;28;20035;-85
2023/09/23 02:19:47;;;;;;;0.00;0.00;;;12.80;99.90;;;;;;4959623;28;20499;-85
2023/09/23 02:22:13;;;;;;;0.20;0.20;;;12.80;99.90;;;;;;4944823;28;20079;-85
2023/09/23 02:24:40;;;;;;;0.10;0.10;;;12.80;99.90;;;;;;4959961;28;20082;-85
2023/09/23 02:27:06;;;;;;;0.00;0.00;;;12.80;99.90;;;;;;4945393;28;20054;-85
2023/09/23 02:29:33;;;;;;;0.00;0.00;;;12.80;99.90;;;;;;4947691;28;20035;-85
2023/09/23 02:32:00;;;;;;;0.10;0.10;;;12.80;99.90;;;;;;4945347;28;20810;-86
2023/09/23 02:34:28;;;;;;;0.00;0.00;;;12.90;99.90;;;;;;4946236;29;20077;-86
2023/09/23 02:36:53;;;;;;;0.10;0.10;;;12.90;99.90;;;;;;4948520;28;20031;-86
2023/09/23 02:39:20;;;;;;;0.10;0.10;;;12.80;99.90;;;;;;4947529;29;20579;-84
2023/09/23 02:41:50;;;;;;;0.00;0.00;;;12.80;99.90;;;;;;4944453;28;20099;-82
2023/09/23 02:44:22;;;;;;;0.00;0.00;;;12.80;99.90;;;;;;4944900;29;20634;-83
2023/09/23 02:46:54;;;;;;;0.10;0.10;;;12.80;99.90;;;;;;4947557;29;20027;-83
2023/09/23 02:49:20;;;;;;;0.10;0.10;;;12.80;99.90;;;;;;4943808;29;20023;-86
2023/09/23 02:51:48;;;;;;;0.00;0.00;;;12.80;99.90;;;;;;4958714;28;20090;-84
2023/09/23 02:54:17;;;;;;;0.00;0.00;;;12.80;99.90;;;;;;4952930;28;20556;-84
2023/09/23 02:56:47;;;;;;;0.10;0.10;;;12.80;99.90;;;;;;4941858;28;20063;-86
2023/09/23 02:59:15;;;;;;;0.08;0.08;;;12.70;99.90;;;;;;4948199;29;20747;-83
2023/09/23 03:01:51;;;;;;;0.10;0.10;;;12.80;99.90;;;;;;4943424;28;20637;-82
2023/09/23 03:04:19;;;;;;;0.10;0.10;;;12.80;99.90;;;;;;4944218;28;20142;-84
2023/09/23 03:06:50;;;;;;;0.30;0.30;;;12.90;99.90;;;;;;4942832;29;20034;-83
2023/09/23 03:09:25;;;;;;;0.00;0.00;;;12.80;99.90;;;;;;4944756;28;20043;-83
2023/09/23 03:11:57;;;;;;;0.00;0.00;;;12.80;99.90;;;;;;4958714;28;20030;-83
2023/09/23 03:14:59;;;;;;;0.10;0.10;;;12.80;99.90;;;;;;4946565;29;20045;-83
2023/09/23 03:17:21;;;;;;;0.00;0.00;;;12.80;99.90;;;;;;4940859;29;20118;-84
2023/09/23 03:19:50;;;;;;;0.10;0.10;;;12.80;99.90;;;;;;4947150;29;20284;-83
2023/09/23 03:22:20;;;;;;;0.00;0.00;;;12.80;99.90;;;;;;4947575;29;20093;-80
2023/09/23 03:24:48;;;;;;;0.08;0.08;;;12.80;99.90;;;;;;4942044;29;20118;-81
2023/09/23 03:27:14;;;;;;;0.10;0.10;;;12.80;99.90;;;;;;4953342;28;20061;-81
2023/09/23 03:29:40;;;;;;;0.00;0.00;;;12.80;99.90;;;;;;4964929;28;20086;-82
2023/09/23 03:32:07;;;;;;;0.10;0.10;;;12.80;99.90;;;;;;4948791;28;20039;-82
2023/09/23 03:34:34;;;;;;;;;;;12.80;99.90;;;;;;4950317;29;20862;-81
2023/09/23 03:37:00;;;;;;;0.00;0.00;;;12.70;99.90;;;;;;4950914;28;19910;-82
2023/09/23 03:39:26;;;;;;;0.00;0.00;;;12.50;99.90;;;;;;4948390;28;20173;-82
2023/09/23 03:41:52;;;;;;;0.10;0.10;;;12.40;99.90;;;;;;4948412;29;20063;-82
2023/09/23 03:44:18;;;;;;;0.00;0.00;;;12.40;99.90;;;;;;4950653;28;20499;-82
2023/09/23 03:46:47;;;;;;;0.10;0.10;;;12.40;99.90;;;;;;4952359;28;20031;-82
2023/09/23 03:49:13;;;;;;;0.10;0.10;;;12.30;99.90;;;;;;4951708;29;20031;-81
2023/09/23 03:51:38;;;;;;;0.10;0.10;;;12.40;99.90;;;;;;4942706;28;20027;-82
2023/09/23 03:54:05;;;;;;;0.00;0.00;;;12.30;99.90;;;;;;4958332;28;20035;-81
2023/09/23 03:56:33;;;;;;;0.08;0.08;;;12.30;99.90;;;;;;4944271;29;20118;-84
2023/09/23 03:58:59;;;;;;;0.03;0.03;;;12.30;99.90;;;;;;4946200;28;20035;-85
2023/09/23 04:01:25;;;;;;;0.00;0.00;;;12.50;99.90;;;;;;4947211;29;20021;-85
2023/09/23 04:03:51;;;;;;;0.10;0.10;;;12.50;99.90;;;;;;4944021;29;20043;-83
2023/09/23 04:06:17;;;;;;;0.00;0.00;;;12.60;99.90;;;;;;4942770;28;20709;-85
2023/09/23 04:08:43;;;;;;;0.10;0.10;;;12.80;99.90;;;;;;4956672;28;20617;-85
2023/09/23 04:11:10;;;;;;;0.00;0.00;;;12.70;99.90;;;;;;4947314;29;20027;-84
2023/09/23 04:13:37;;;;;;;0.00;0.00;;;12.70;99.90;;;;;;4946987;29;20039;-84
2023/09/23 04:16:05;;;;;;;0.00;0.00;;;12.80;99.90;;;;;;4953360;28;20635;-85
2023/09/23 04:18:31;;;;;;;0.00;0.00;;;12.70;99.90;;;;;;4951324;28;20062;-85
2023/09/23 04:21:01;;;;;;;0.00;0.00;;;12.70;99.90;;;;;;4946741;28;20649;-86
2023/09/23 04:23:27;;;;;;;0.10;0.10;;;12.70;99.90;;;;;;4946523;29;20035;-85
2023/09/23 04:25:52;;;;;;;0.00;0.00;;;12.70;99.90;;;;;;4949817;28;20042;-86
2023/09/23 04:28:18;;;;;;;0.20;0.20;;;12.70;99.90;;;;;;4941629;28;20073;-85
2023/09/23 04:30:44;;;;;;;0.05;0.05;;;12.70;99.90;;;;;;4952458;29;20038;-89
2023/09/23 04:33:12;;;;;;;0.00;0.00;;;12.70;99.90;;;;;;4956452;28;20043;-85
2023/09/23 04:35:38;;;;;;;0.00;0.00;;;12.70;99.90;;;;;;4967310;28;20038;-85
2023/09/23 04:38:04;;;;;;;0.00;0.00;;;12.70;99.90;;;;;;4950696;28;20039;-82
2023/09/23 04:40:29;;;;;;;0.10;0.10;;;12.60;99.90;;;;;;4964390;28;20039;-85
2023/09/23 04:42:55;;;;;;;0.10;0.10;;;12.60;99.90;;;;;;4950708;29;20031;-85
2023/09/23 04:45:21;;;;;;;0.07;0.07;;;12.50;99.90;;;;;;4961003;28;20042;-82
2023/09/23 04:47:50;;;;;;;0.10;0.10;;;12.40;99.90;;;;;;4959365;28;20447;-85
2023/09/23 04:50:17;;;;;;;0.00;0.00;;;12.20;99.90;;;;;;4951949;28;20821;-83
2023/09/23 04:52:44;;;;;;;0.00;0.00;;;12.30;99.90;;;;;;4966352;28;20031;-83
2023/09/23 04:55:11;;;;;;;0.00;0.00;;;12.40;99.90;;;;;;4950082;28;20071;-84
2023/09/23 04:57:37;;;;;;;0.00;0.00;;;12.30;99.90;;;;;;4951358;29;20055;-79
2023/09/23 05:00:04;;;;;;;0.00;0.00;;;12.10;99.90;;;;;;4946495;28;20073;-78
2023/09/23 05:02:30;;;;;;;0.00;0.00;;;12.20;99.90;;;;;;4949276;28;20074;-82
2023/09/23 05:04:56;;;;;;;0.00;0.00;;;12.30;99.90;;;;;;4949413;29;20039;-82
2023/09/23 05:07:26;;;;;;;0.00;0.00;;;12.30;99.90;;;;;;4945220;28;20028;-82
2023/09/23 05:09:55;;;;;;;0.00;0.00;;;12.50;99.90;;;;;;4947358;28;20037;-82
2023/09/23 05:12:21;;;;;;;0.10;0.10;;;12.60;99.90;;;;;;4947735;28;20031;-83
2023/09/23 05:14:47;;;;;;;0.00;0.00;;;12.60;99.90;;;;;;4951418;28;20042;-91
2023/09/23 05:17:15;;;;;;;0.00;0.00;;;12.70;99.90;;;;;;4968233;28;20035;-93
2023/09/23 05:19:42;;;;;;;0.00;0.00;;;12.60;99.90;;;;;;4953273;28;20035;-89
2023/09/23 05:22:10;;;;;;;0.10;0.10;;;12.60;99.90;;;;;;4954407;29;20116;-91
2023/09/23 05:24:35;;;;;;;0.00;0.00;;;12.70;99.90;;;;;;4953536;28;20031;-92
2023/09/23 05:27:01;;;;;;;0.00;0.00;;;12.70;99.90;;;;;;4958375;28;20030;-90
2023/09/23 05:29:27;;;;;;;0.00;0.00;;;12.80;99.90;;;;;;4954513;28;20511;-89
2023/09/23 05:31:52;;;;;;;0.00;0.00;;;12.70;99.90;;;;;;4953144;29;20791;-90
2023/09/23 05:34:21;;;;;;;0.00;0.00;;;12.70;99.90;;;;;;4953172;28;20499;-91
2023/09/23 05:36:47;;;;;;;0.00;0.00;;;12.80;99.90;;;;;;4949871;28;20044;-89
2023/09/23 05:39:18;;;;;;;0.00;0.00;;;12.70;99.90;;;;;;4953411;28;20662;-85
2023/09/23 05:41:44;;;;;;;0.10;0.10;;;12.80;99.90;;;;;;4948094;28;20042;-88
2023/09/23 05:44:12;;;;;;;0.00;0.00;;;12.80;99.90;;;;;;4965282;28;20046;-82
2023/09/23 05:46:38;;;;;;;0.00;0.00;;;12.80;99.90;;;;;;4961931;28;20035;-89
2023/09/23 05:49:05;;;;;;;0.00;0.00;;;12.70;99.90;;;;;;4962672;28;20646;-85
2023/09/23 05:51:33;;;;;;;0.00;0.00;;;12.70;99.90;;;;;;4942787;28;20035;-85
2023/09/23 05:54:00;;;;;;;0.13;0.13;;;12.70;99.90;;;;;;4948570;29;20150;-83
2023/09/23 05:56:26;;;;;;;0.15;0.15;;;12.60;99.90;;;;;;4964065;28;20050;-86
2023/09/23 05:58:51;;;;;;;0.00;0.00;;;12.70;99.90;;;;;;4965240;28;20495;-81
2023/09/23 06:01:17;;;;;;;0.10;0.10;;;12.70;99.90;;;;;;4945389;29;20693;-79
2023/09/23 06:03:43;;;;;;;0.00;0.00;;;12.80;99.90;;;;;;4945967;28;20058;-81
2023/09/23 06:06:11;;;;;;;0.00;0.00;;;12.80;99.90;;;;;;4965744;28;20110;-81
2023/09/23 06:08:37;;;;;;;0.10;0.10;;;12.90;99.90;;;;;;4949151;29;20035;-80
2023/09/23 06:11:06;;;;;;;0.10;0.10;;;12.70;99.90;;;;;;4965106;28;20023;-81
2023/09/23 06:13:32;;;;;;;0.10;0.10;;;12.70;99.90;;;;;;4950291;29;20271;-81
2023/09/23 06:16:04;;;;;;;0.00;0.00;;;12.80;99.90;;;;;;4949599;29;20071;-80
2023/09/23 06:18:30;;;;;;;0.05;0.05;;;12.90;99.90;;;;;;4949603;29;20270;-80
2023/09/23 06:21:03;;;;;;;0.00;0.00;;;12.90;99.90;;;;;;4949260;29;20057;-81
2023/09/23 06:23:29;;;;;;;0.00;0.00;;;13.00;99.90;;;;;;4949493;29;20511;-80
2023/09/23 06:26:02;;;;;;;0.00;0.00;;;13.10;99.90;;;;;;4950255;28;20035;-80
2023/09/23 06:28:33;;;;;;;0.00;0.00;;;13.10;99.90;;;;;;4946996;28;20030;-80
2023/09/23 06:30:59;;;;;;;0.10;0.10;;;13.20;99.90;;;;;;4950413;29;20051;-80
2023/09/23 06:33:24;;;;;;;0.10;0.10;;;13.20;99.90;;;;;;4950075;29;21100;-80
2023/09/23 06:35:50;;;;;;;0.00;0.00;;;13.10;99.90;;;;;;4949714;29;20108;-80
2023/09/23 06:38:16;;;;;;;0.10;0.10;;;13.00;99.90;;;;;;4949762;29;20039;-80
2023/09/23 06:40:42;;;;;;;0.00;0.00;;;13.00;99.90;;;;;;4965194;28;20039;-79
2023/09/23 06:43:08;;;;;;;0.00;0.00;;;13.00;99.90;;;;;;4949971;29;20474;-79
2023/09/23 06:45:36;;;;;;;0.00;0.00;;;13.00;99.90;;;;;;4944516;29;20035;-81
2023/09/23 06:48:03;;;;;;;0.00;0.00;;;13.00;99.90;;;;;;4949116;29;20115;-80
2023/09/23 06:50:28;;;;;;;0.10;0.10;;;13.00;99.90;;;;;;4949697;29;20146;-80
2023/09/23 06:52:54;;;;;;;0.00;0.00;;;12.80;99.90;;;;;;4949569;28;20114;-81
2023/09/23 06:55:20;;;;;;;0.00;0.00;;;12.70;99.90;;;;;;4956898;28;20039;-80
2023/09/23 06:57:46;;;;;;;0.00;0.00;;;12.70;99.90;;;;;;4942009;29;20046;-81
2023/09/23 07:00:12;;;;;;;0.00;0.00;;;13.00;99.90;;;;;;4945386;29;20514;-79
2023/09/23 07:02:37;;;;;;;0.10;0.10;;;13.20;99.90;;;;;;4948732;29;20772;-80
2023/09/23 07:05:03;;;;;;;0.00;0.00;;;13.40;99.90;;;;;;4941867;29;20051;-80
2023/09/23 07:07:29;;;;;;;0.00;0.00;;;13.40;99.90;;;;;;4942796;28;20033;-80
2023/09/23 07:09:55;;;;;;;0.10;0.10;;;13.40;99.90;;;;;;4943650;29;20063;-80
2023/09/23 07:12:20;;;;;;;0.10;0.10;;;13.30;99.90;;;;;;4943661;29;20046;-79
2023/09/23 07:14:46;;;;;;;0.00;0.00;;;13.40;99.90;;;;;;4944534;29;20032;-80
2023/09/23 07:17:12;;;;;;;0.63;0.63;;;13.30;99.90;;;;;;4944298;29;20038;-80
2023/09/23 07:19:38;;;;;;;0.00;0.00;;;13.40;99.90;;;;;;4940544;29;20408;-80
2023/09/23 07:22:04;;;;;;;0.10;0.10;;;13.30;99.90;;;;;;4948622;28;20066;-81
2023/09/23 07:24:33;;;;;;;0.00;0.00;;;13.40;99.90;;;;;;4945895;29;20460;-80
2023/09/23 07:26:59;;;;;;;0.00;0.00;;;13.50;99.90;;;;;;4948634;28;20587;-81
2023/09/23 07:29:25;;;;;;;0.00;0.00;;;13.50;99.90;;;;;;4947949;28;20127;-81
2023/09/23 07:31:55;;;;;;;0.10;0.10;;;13.40;99.90;;;;;;4946834;29;20180;-80
2023/09/23 07:34:21;;;;;;;0.00;0.00;;;13.70;99.90;;;;;;4946956;29;20035;-81
2023/09/23 07:36:46;;;;;;;0.13;0.13;;;14.00;99.90;;;;;;4946167;28;20167;-81
2023/09/23 07:39:15;;;;;;;0.00;0.00;;;14.20;99.90;;;;;;4948194;29;20035;-80
2023/09/23 07:41:41;;;;;;;0.10;0.10;;;14.50;99.90;;;;;;4948661;28;20042;-80
2023/09/23 07:44:07;;;;;;;0.10;0.10;;;15.00;99.90;;;;;;4947761;29;20028;-80
2023/09/23 07:46:32;;;;;;;0.00;0.00;;;15.00;99.90;;;;;;4941180;29;20023;-79
2023/09/23 07:48:58;;;;;;;0.00;0.00;;;15.20;99.90;;;;;;4937116;29;20031;-81
2023/09/23 07:51:24;;;;;;;0.10;0.10;;;15.10;99.90;;;;;;4942192;29;20511;-80
2023/09/23 07:53:53;;;;;;;0.00;0.00;;;14.80;99.90;;;;;;4956410;28;20026;-80
2023/09/23 07:56:18;;;;;;;0.00;0.00;;;14.50;99.90;;;;;;4947355;28;20042;-80
2023/09/23 07:58:44;;;;;;;0.00;0.00;;;14.30;99.90;;;;;;4950671;28;20031;-80
2023/09/23 08:01:10;;;;;;;0.00;0.00;;;14.30;99.90;;;;;;4941842;29;20031;-80
2023/09/23 08:03:36;;;;;;;0.00;0.00;;;14.40;99.90;;;;;;4959908;28;20039;-80
2023/09/23 08:06:01;;;;;;;0.00;0.00;;;14.50;99.90;;;;;;4946562;29;20475;-79
2023/09/23 08:08:27;;;;;;;0.00;0.00;;;14.40;99.90;;;;;;4943705;29;20411;-80
2023/09/23 08:10:53;;;;;;;0.03;0.03;;;14.50;99.90;;;;;;4948667;28;20038;-79
2023/09/23 08:13:20;;;;;;;0.00;0.00;;;14.50;99.90;;;;;;4943963;29;20171;-79
2023/09/23 08:15:46;;;;;;;;;;;14.50;99.90;;;;;;4946951;28;20102;-79
2023/09/23 08:18:12;;;;;;;0.00;0.00;;;14.30;99.90;;;;;;4960022;28;19910;-79
2023/09/23 08:20:39;;;;;;;0.00;0.00;;;14.50;99.90;;;;;;4948718;28;20150;-79
2023/09/23 08:23:05;;;;;;;0.00;0.00;;;14.80;99.90;;;;;;4946804;28;20043;-80
2023/09/23 08:25:32;;;;;;;0.00;0.00;;;14.80;99.90;;;;;;4948329;28;20031;-80
2023/09/23 08:27:57;;;;;;;0.07;0.07;;;14.70;99.90;;;;;;4950943;28;20170;-79
2023/09/23 08:30:23;;;;;;;0.00;0.00;;;14.80;99.90;;;;;;4949712;29;20381;-80
2023/09/23 08:32:49;;;;;;;0.00;0.00;;;14.70;99.90;;;;;;4951025;29;20141;-79
2023/09/23 08:35:15;;;;;;;0.00;0.00;;;14.60;99.90;;;;;;4950475;29;20046;-80
2023/09/23 08:37:41;;;;;;;0.00;0.00;;;14.50;99.90;;;;;;4951592;29;20071;-80
2023/09/23 08:40:10;;;;;;;0.00;0.00;;;14.70;99.90;;;;;;4952092;29;20290;-80
2023/09/23 08:42:40;;;;;;;0.20;0.20;;;14.80;99.90;;;;;;4944369;29;20114;-78
2023/09/23 08:45:09;;;;;;;0.00;0.00;;;15.00;99.90;;;;;;4943800;28;20115;-80
2023/09/23 08:47:38;;;;;;;0.00;0.00;;;14.90;99.90;;;;;;4949290;29;20027;-79
2023/09/23 08:50:07;;;;;;;0.00;0.00;;;15.00;99.90;;;;;;4960532;28;20043;-79
2023/09/23 08:52:34;;;;;;;0.00;0.00;;;15.00;99.90;;;;;;4942900;29;20444;-80
2023/09/23 08:55:00;;;;;;;0.00;0.00;;;15.00;99.90;;;;;;4955738;28;20076;-79
2023/09/23 08:57:26;;;;;;;0.00;0.00;;;14.80;99.90;;;;;;4940828;29;20114;-79
2023/09/23 08:59:52;;;;;;;0.20;0.20;;;14.80;99.90;;;;;;4942611;29;20194;-80
2023/09/23 09:02:22;;;;;;;0.00;0.00;;;15.00;99.90;;;;;;4947890;29;20038;-80
2023/09/23 09:04:47;;;;;;;0.10;0.10;;;14.80;99.90;;;;;;4946373;29;20035;-80
2023/09/23 09:07:13;;;;;;;0.00;0.00;;;15.00;99.90;;;;;;4942812;29;20042;-79
2023/09/23 09:09:40;;;;;;;0.00;0.00;;;15.30;99.90;;;;;;4949912;29;20087;-80
2023/09/23 09:12:06;;;;;;;0.10;0.10;;;15.60;99.90;;;;;;4944978;29;20039;-79
2023/09/23 09:14:33;;;;;;;0.00;0.00;;;15.70;99.90;;;;;;4944989;29;20570;-79
2023/09/23 09:16:59;;;;;;;0.00;0.00;;;16.10;99.90;;;;;;4948605;29;20118;-81
2023/09/23 09:19:26;;;;;;;0.00;0.00;;;16.20;99.90;;;;;;4946234;29;20015;-80
2023/09/23 09:21:51;;;;;;;0.10;0.10;;;16.70;99.90;;;;;;4960428;28;20063;-80
2023/09/23 09:24:17;;;;;;;0.00;0.00;;;17.30;99.90;;;;;;4947107;29;20022;-80
2023/09/23 09:26:44;;;;;;;0.00;0.00;;;17.10;99.90;;;;;;4963161;28;20031;-80
2023/09/23 09:29:10;;;;;;;0.13;0.13;;;17.00;99.90;;;;;;4952026;28;20058;-78
2023/09/23 09:31:38;;;;;;;0.00;0.00;;;16.50;99.90;;;;;;4949069;29;20039;-78
2023/09/23 09:34:11;;;;;;;0.00;0.00;;;16.10;99.90;;;;;;4949844;29;20122;-80
2023/09/23 09:36:38;;;;;;;0.00;0.00;;;15.90;99.90;;;;;;4964418;28;20605;-80
2023/09/23 09:39:07;;;;;;;0.00;0.00;;;15.50;99.90;;;;;;4950096;29;20102;-80
2023/09/23 09:41:53;;;;;;;0.00;0.00;;;15.30;99.90;;;;;;4943234;29;20585;-81
2023/09/23 09:44:23;;;;;;;0.00;0.00;;;15.10;99.90;;;;;;4944589;28;20027;-80
2023/09/23 09:46:50;;;;;;;0.10;0.10;;;14.90;99.90;;;;;;4949701;28;20031;-80
2023/09/23 09:49:17;;;;;;;0.00;0.00;;;15.00;99.90;;;;;;4943032;28;20078;-80
2023/09/23 09:51:46;;;;;;;;;;;15.20;99.90;;;;;;4945613;29;20031;-81
2023/09/23 09:54:12;;;;;;;0.00;0.00;;;15.50;99.90;;;;;;4948118;28;19918;-79
2023/09/23 09:56:40;;;;;;;0.00;0.00;;;15.70;99.90;;;;;;4938752;29;20051;-79
2023/09/23 09:59:06;;;;;;;0.00;0.00;;;16.00;99.90;;;;;;4939863;29;20967;-80
2023/09/23 10:01:34;;;;;;;0.00;0.00;;;16.20;99.90;;;;;;4946333;29;20051;-79
2023/09/23 10:03:59;;;;;;;0.00;0.00;;;16.50;99.90;;;;;;4942028;28;20756;-79
2023/09/23 10:06:26;;;;;;;0.00;0.00;;;16.70;99.90;;;;;;4947065;29;20055;-80
2023/09/23 10:08:53;;;;;;;0.00;0.00;;;16.80;99.90;;;;;;4948500;29;20031;-79
2023/09/23 10:11:33;;;;;;;0.00;0.00;;;17.10;99.90;;;;;;4942630;29;20038;-78
2023/09/23 10:13:59;;;;;;;0.00;0.00;;;17.40;99.90;;;;;;4948905;29;20491;-80
2023/09/23 10:16:29;;;;;;;0.00;0.00;;;17.20;99.90;;;;;;4950175;29;20032;-80
2023/09/23 10:18:56;;;;;;;0.00;0.00;;;17.50;99.90;;;;;;4943412;29;20033;-80
2023/09/23 10:21:24;;;;;;;0.00;0.00;;;17.70;99.90;;;;;;4947869;28;20051;-80
2023/09/23 10:23:51;;;;;;;0.00;0.00;;;17.70;99.90;;;;;;4946056;28;20033;-80
2023/09/23 10:26:19;;;;;;;0.00;0.00;;;17.90;99.90;;;;;;4948901;28;20055;-80
2023/09/23 10:29:04;;;;;;;0.00;0.00;;;18.10;99.90;;;;;;4949307;28;20042;-80
2023/09/23 10:31:31;;;;;;;0.00;0.00;;;18.10;99.90;;;;;;4946491;29;20027;-80
2023/09/23 10:34:02;;;;;;;0.00;0.00;;;17.80;99.90;;;;;;4944500;29;20517;-80
2023/09/23 10:36:28;;;;;;;0.00;0.00;;;17.70;99.90;;;;;;4948396;29;20472;-80
2023/09/23 10:38:55;;;;;;;0.00;0.00;;;17.80;99.90;;;;;;4947537;28;20061;-80
2023/09/23 10:41:22;;;;;;;0.00;0.00;;;17.90;99.90;;;;;;4949420;29;20063;-80
2023/09/23 10:43:55;;;;;;;0.00;0.00;;;18.20;99.90;;;;;;4949464;29;20134;-80
2023/09/23 10:46:21;;;;;;;0.00;0.00;;;18.60;99.90;;;;;;4941671;29;20102;-80
2023/09/23 10:48:47;;;;;;;0.00;0.00;;;19.40;99.90;;;;;;4942077;29;20440;-80
2023/09/23 10:51:13;;;;;;;0.00;0.00;;;19.50;99.90;;;;;;4952028;28;20031;-79
2023/09/23 10:53:39;;;;;;;0.00;0.00;;;19.60;99.80;;;;;;4947179;28;20114;-80
2023/09/23 10:56:10;;;;;;;0.00;0.00;;;19.40;99.40;;;;;;4945682;29;20130;-81
2023/09/23 10:58:36;;;;;;;0.00;0.00;;;19.80;98.90;;;;;;4945907;28;20081;-80
2023/09/23 11:01:04;;;;;;;0.00;0.00;;;20.10;99.20;;;;;;4952651;28;20035;-81
2023/09/23 11:03:30;;;;;;;0.00;0.00;;;19.80;97.70;;;;;;4946890;29;20058;-81
2023/09/23 11:05:56;;;;;;;0.00;0.00;;;19.20;99.00;;;;;;4946562;29;20539;-81
2023/09/23 11:08:22;;;;;;;0.00;0.00;;;19.10;99.90;;;;;;4946124;28;20082;-82
2023/09/23 11:10:49;;;;;;;0.00;0.00;;;18.70;99.40;;;;;;4947898;28;20039;-81
2023/09/23 11:13:15;;;;;;;;;;;18.70;99.90;;;;;;4943666;28;20051;-81
2023/09/23 11:15:45;;;;;;;0.00;0.00;;;18.70;99.70;;;;;;4945806;28;19918;-82
2023/09/23 11:18:13;;;;;;;0.00;0.00;;;19.20;99.90;;;;;;4941675;29;20036;-81
2023/09/23 11:20:43;;;;;;;0.00;0.00;;;19.20;99.90;;;;;;4944746;29;20047;-82
2023/09/23 11:23:10;;;;;;;0.00;0.00;;;19.50;99.90;;;;;;4948846;29;20116;-82
2023/09/23 11:25:41;;;;;;;;;;;19.00;99.80;;;;;;4947736;28;20705;-82
2023/09/23 11:28:17;;;;;;;0.00;0.00;;;19.00;99.90;;;;;;4947105;28;20445;-82
2023/09/23 11:30:42;;;;;;;0.00;0.00;;;19.00;99.90;;;;;;4946103;29;20027;-82
2023/09/23 11:33:11;;;;;;;0.00;0.00;;;19.10;99.50;;;;;;4948662;29;20038;-82
2023/09/23 11:35:37;;;;;;;0.00;0.00;;;19.40;99.90;;;;;;4952388;28;20443;-82
2023/09/23 11:38:03;;;;;;;0.00;0.00;;;19.00;99.90;;;;;;4948410;29;20110;-81
2023/09/23 11:40:30;;;;;;;0.00;0.00;;;18.60;99.90;;;;;;4948979;28;20023;-81
2023/09/23 11:42:56;;;;;;;0.00;0.00;;;18.60;99.90;;;;;;4944821;28;21011;-82
2023/09/23 11:45:23;;;;;;;0.00;0.00;;;19.00;99.90;;;;;;4949604;29;20031;-81
2023/09/23 11:47:49;;;;;;;0.00;0.00;;;19.10;99.90;;;;;;4943303;29;20055;-81
2023/09/23 11:50:15;;;;;;;0.00;0.00;;;19.50;99.90;;;;;;4948434;29;20581;-78
2023/09/23 11:52:41;;;;;;;0.00;0.00;;;19.90;98.50;;;;;;4941218;29;20284;-81
2023/09/23 11:55:07;;;;;;;0.00;0.00;;;19.90;97.50;;;;;;4957171;28;20050;-82
2023/09/23 11:57:33;;;;;;;0.00;0.00;;;19.40;97.00;;;;;;4945506;28;20113;-82
2023/09/23 11:59:58;;;;;;;0.00;0.00;;;19.60;97.60;;;;;;4948050;28;20139;-82
2023/09/23 12:02:25;;;;;;;0.00;0.00;;;19.40;96.10;;;;;;4952295;28;20079;-82
2023/09/23 12:04:50;;;;;;;0.08;0.08;;;19.30;96.40;;;;;;4961823;28;20115;-82
2023/09/23 12:07:19;;;;;;;0.00;0.00;;;19.00;96.80;;;;;;4965503;28;20760;-81
2023/09/23 12:09:45;;;;;;;0.00;0.00;;;18.60;96.50;;;;;;4949868;29;20057;-81
2023/09/23 12:12:12;;;;;;;0.00;0.00;;;18.30;97.40;;;;;;4951413;28;20039;-81
2023/09/23 12:14:42;;;;;;;0.00;0.00;;;18.10;97.80;;;;;;4942051;29;20845;-81
2023/09/23 12:17:14;;;;;;;0.00;0.00;;;17.90;97.50;;;;;;4944551;29;20141;-81
2023/09/23 12:19:40;;;;;;;0.00;0.00;;;17.70;96.00;;;;;;4945743;29;20046;-83
2023/09/23 12:22:06;;;;;;;0.00;0.00;;;17.80;98.10;;;;;;4945905;29;20828;-81
2023/09/23 12:24:31;;;;;;;0.00;0.00;;;17.80;97.80;;;;;;4950492;29;20035;-81
2023/09/23 12:26:58;;;;;;;0.00;0.00;;;17.80;96.80;;;;;;4947948;28;20031;-84
2023/09/23 12:29:24;;;;;;;0.00;0.00;;;17.80;97.20;;;;;;4953132;28;20023;-84
2023/09/23 12:31:50;;;;;;;0.00;0.00;;;18.00;96.90;;;;;;4952385;29;20032;-84
2023/09/23 12:34:15;;;;;;;0.00;0.00;;;18.10;97.30;;;;;;4944553;28;20098;-81
2023/09/23 12:36:41;;;;;;;0.00;0.00;;;18.30;96.50;;;;;;4938622;29;20095;-82
2023/09/23 12:39:07;;;;;;;0.00;0.00;;;18.40;96.40;;;;;;4946022;29;20032;-83
2023/09/23 12:41:32;;;;;;;0.00;0.00;;;18.30;96.10;;;;;;4951695;29;20147;-84
2023/09/23 12:43:58;;;;;;;0.00;0.00;;;18.20;96.40;;;;;;4950956;29;20055;-82
2023/09/23 12:46:24;;;;;;;0.00;0.00;;;17.90;97.10;;;;;;4944553;29;20078;-83
2023/09/23 12:48:49;;;;;;;0.00;0.00;;;17.70;96.00;;;;;;4949147;28;20023;-83